createdAt,value
2024-03-04T00:00:51.708Z,56.50
2024-03-04T00:03:19.689Z,55.90
2024-03-04T00:05:49.075Z,56.50
2024-03-04T00:08:17.224Z,56.00
2024-03-04T00:10:45.370Z,55.90
2024-03-04T00:13:14.050Z,56.00
2024-03-04T00:15:42.092Z,56.00
2024-03-04T00:18:10.145Z,56.20
2024-03-04T00:20:38.150Z,56.30
2024-03-04T00:23:07.559Z,56.20
2024-03-04T00:25:35.693Z,56.20
2024-03-04T00:28:04.894Z,56.20
2024-03-04T00:30:33.025Z,56.90
2024-03-04T00:33:01.113Z,56.30
2024-03-04T00:35:29.584Z,56.20
2024-03-04T00:37:57.694Z,56.40
2024-03-04T00:40:27.191Z,56.40
2024-03-04T00:42:55.216Z,56.30
2024-03-04T00:45:23.300Z,56.30
2024-03-04T00:47:51.603Z,56.30
2024-03-04T00:50:20.192Z,56.30
2024-03-04T00:52:48.159Z,56.30
2024-03-04T00:55:17.268Z,56.40
2024-03-04T00:57:46.937Z,56.40
2024-03-04T01:00:16.196Z,56.50
2024-03-04T01:02:44.450Z,56.40
2024-03-04T01:05:13.610Z,56.50
2024-03-04T01:07:41.736Z,56.40
2024-03-04T01:10:09.995Z,56.40
2024-03-04T01:12:38.888Z,56.50
2024-03-04T01:15:10.425Z,56.50
2024-03-04T01:17:39.860Z,56.50
2024-03-04T01:20:11.429Z,56.50
2024-03-04T01:22:40.690Z,56.40
2024-03-04T01:25:10.155Z,56.40
2024-03-04T01:27:38.103Z,56.40
2024-03-04T01:30:10.624Z,56.40
2024-03-04T01:32:40.077Z,56.40
2024-03-04T01:35:12.173Z,56.50
2024-03-04T01:37:40.753Z,56.40
2024-03-04T01:40:09.871Z,56.50
2024-03-04T01:42:39.007Z,56.50
2024-03-04T01:45:18.227Z,56.50
2024-03-04T01:47:47.692Z,56.60
2024-03-04T01:50:15.970Z,56.60
2024-03-04T01:52:44.076Z,56.60
2024-03-04T01:55:12.140Z,56.60
2024-03-04T01:57:40.715Z,56.60
2024-03-04T02:00:12.687Z,56.60
2024-03-04T02:02:42.515Z,56.60
2024-03-04T02:05:14.015Z,56.50
2024-03-04T02:07:42.971Z,56.60
2024-03-04T02:10:12.307Z,56.70
2024-03-04T02:12:40.899Z,56.70
2024-03-04T02:15:10.092Z,56.80
2024-03-04T02:17:38.180Z,56.80
2024-03-04T02:20:10.965Z,56.80
2024-03-04T02:22:41.165Z,56.70
2024-03-04T02:25:12.793Z,56.80
2024-03-04T02:27:40.907Z,56.80
2024-03-04T02:30:10.958Z,56.70
2024-03-04T02:32:40.233Z,56.70
2024-03-04T02:35:09.850Z,56.50
2024-03-04T02:37:38.099Z,56.70
2024-03-04T02:40:09.181Z,56.80
2024-03-04T02:42:37.453Z,56.90
2024-03-04T02:45:06.530Z,56.80
2024-03-04T02:47:34.579Z,56.90
2024-03-04T02:50:04.377Z,56.90
2024-03-04T02:52:32.524Z,56.90
2024-03-04T02:55:00.540Z,56.90
2024-03-04T02:57:30.615Z,56.90
2024-03-04T02:59:58.577Z,56.80
2024-03-04T03:02:26.589Z,56.70
2024-03-04T03:04:54.789Z,56.80
2024-03-04T03:07:22.902Z,56.70
2024-03-04T03:09:50.906Z,56.90
2024-03-04T03:12:19.269Z,56.80
2024-03-04T03:14:48.927Z,57.40
2024-03-04T03:17:20.173Z,56.80
2024-03-04T03:19:48.341Z,57.00
2024-03-04T03:22:16.433Z,57.00
2024-03-04T03:24:44.821Z,57.00
2024-03-04T03:27:12.874Z,57.10
2024-03-04T03:29:41.793Z,57.10
2024-03-04T03:32:11.139Z,57.00
2024-03-04T03:34:39.609Z,57.00
2024-03-04T03:37:07.759Z,57.10
2024-03-04T03:39:35.752Z,57.00
2024-03-04T03:42:09.177Z,57.00
2024-03-04T03:44:37.333Z,57.00
2024-03-04T03:47:05.574Z,57.00
2024-03-04T03:49:35.494Z,57.10
2024-03-04T03:52:04.193Z,57.10
2024-03-04T03:54:33.082Z,57.10
2024-03-04T03:57:01.465Z,56.90
2024-03-04T03:59:29.698Z,56.90
2024-03-04T04:01:57.884Z,56.90
2024-03-04T04:04:26.795Z,56.70
2024-03-04T04:06:56.192Z,56.70
2024-03-04T04:09:24.210Z,56.70
2024-03-04T04:11:52.459Z,56.60
2024-03-04T04:14:20.712Z,56.90
2024-03-04T04:16:50.322Z,56.90
2024-03-04T04:19:18.403Z,56.80
2024-03-04T04:21:46.725Z,57.00
2024-03-04T04:24:16.105Z,56.90
2024-03-04T04:26:44.107Z,56.80
2024-03-04T04:29:12.066Z,56.70
2024-03-04T04:31:40.724Z,57.30
2024-03-04T04:34:08.770Z,56.60
2024-03-04T04:36:37.110Z,56.70
2024-03-04T04:39:05.153Z,56.70
2024-03-04T04:41:36.231Z,56.70
2024-03-04T04:44:04.889Z,56.80
2024-03-04T04:46:33.104Z,56.80
2024-03-04T04:49:01.270Z,56.90
2024-03-04T04:51:29.292Z,56.80
2024-03-04T04:53:57.279Z,57.30
2024-03-04T04:56:25.663Z,56.40
2024-03-04T04:58:54.974Z,56.20
2024-03-04T05:01:30.143Z,56.00
2024-03-04T05:04:14.313Z,55.90
2024-03-04T05:06:47.944Z,55.90
2024-03-04T05:09:15.980Z,55.70
2024-03-04T05:11:44.074Z,55.70
2024-03-04T05:14:14.271Z,55.60
2024-03-04T05:16:42.200Z,55.50
2024-03-04T05:19:10.180Z,55.50
2024-03-04T05:21:38.399Z,55.40
2024-03-04T05:24:06.707Z,55.40
2024-03-04T05:26:35.054Z,55.50
2024-03-04T05:29:03.059Z,55.30
2024-03-04T05:31:32.656Z,55.30
2024-03-04T05:34:00.737Z,55.30
2024-03-04T05:36:28.785Z,55.30
2024-03-04T05:38:56.866Z,55.20
2024-03-04T05:41:24.894Z,55.20
2024-03-04T05:43:53.189Z,55.20
2024-03-04T05:46:21.307Z,55.20
2024-03-04T05:48:51.363Z,55.80
2024-03-04T05:51:19.889Z,55.20
2024-03-04T05:53:49.267Z,55.20
2024-03-04T05:56:17.210Z,55.20
2024-03-04T05:58:45.246Z,55.10
2024-03-04T06:01:16.377Z,55.10
2024-03-04T06:03:44.728Z,55.10
2024-03-04T06:06:14.837Z,55.00
2024-03-04T06:08:42.801Z,55.00
2024-03-04T06:11:10.802Z,55.00
2024-03-04T06:13:39.090Z,55.10
2024-03-04T06:16:07.360Z,55.20
2024-03-04T06:18:35.396Z,55.20
2024-03-04T06:21:03.577Z,55.00
2024-03-04T06:23:33.034Z,55.60
2024-03-04T06:26:01.233Z,55.00
2024-03-04T06:28:29.656Z,55.00
2024-03-04T06:30:57.894Z,54.90
2024-03-04T06:33:35.558Z,55.00
2024-03-04T06:36:12.199Z,55.10
2024-03-04T06:38:43.086Z,55.00
2024-03-04T06:41:11.458Z,55.00
2024-03-04T06:43:39.460Z,55.00
2024-03-04T06:46:07.628Z,54.90
2024-03-04T06:48:35.645Z,55.00
2024-03-04T06:51:03.865Z,55.10
2024-03-04T06:53:31.994Z,55.20
2024-03-04T06:56:02.007Z,55.10
2024-03-04T06:58:30.132Z,55.00
2024-03-04T07:00:58.251Z,55.00
2024-03-04T07:03:26.294Z,55.00
2024-03-04T07:05:54.239Z,54.90
2024-03-04T07:08:22.236Z,54.90
2024-03-04T07:10:50.442Z,55.00
2024-03-04T07:13:20.129Z,55.00
2024-03-04T07:15:48.264Z,55.00
2024-03-04T07:18:16.259Z,54.90
2024-03-04T07:20:44.306Z,54.90
2024-03-04T07:23:12.286Z,54.90
2024-03-04T07:25:40.332Z,54.90
2024-03-04T07:28:08.820Z,54.90
2024-03-04T07:30:38.165Z,55.00
2024-03-04T07:33:09.895Z,55.00
2024-03-04T07:35:37.957Z,55.00
2024-03-04T07:38:06.447Z,54.80
2024-03-04T07:40:34.465Z,54.80
2024-03-04T07:43:03.546Z,54.80
2024-03-04T07:45:32.102Z,54.80
2024-03-04T07:48:01.458Z,54.90
2024-03-04T07:50:29.460Z,54.90
2024-03-04T07:52:57.487Z,54.80
2024-03-04T07:55:25.795Z,54.70
2024-03-04T07:57:53.808Z,54.70
2024-03-04T08:00:22.595Z,54.70
2024-03-04T08:02:50.849Z,54.70
2024-03-04T08:05:20.334Z,54.60
2024-03-04T08:07:48.413Z,54.70
2024-03-04T08:10:18.434Z,54.70
2024-03-04T08:12:46.865Z,54.70
2024-03-04T08:15:14.964Z,54.60
2024-03-04T08:17:53.843Z,54.50
2024-03-04T08:20:33.348Z,54.50
2024-03-04T08:23:02.920Z,54.50
2024-03-04T08:25:31.078Z,54.50
2024-03-04T08:27:59.543Z,54.50
2024-03-04T08:30:27.824Z,54.50
2024-03-04T08:32:55.821Z,54.50
2024-03-04T08:35:25.185Z,54.40
2024-03-04T08:37:53.276Z,54.40
2024-03-04T08:40:21.372Z,54.30
2024-03-04T08:42:49.818Z,54.30
2024-03-04T08:45:18.136Z,54.40
2024-03-04T08:47:46.233Z,54.40
2024-03-04T08:50:14.206Z,54.40
2024-03-04T08:52:43.924Z,54.30
2024-03-04T08:55:13.409Z,54.10
2024-03-04T08:57:41.947Z,54.10
2024-03-04T09:00:11.562Z,54.10
2024-03-04T09:02:39.849Z,54.10
2024-03-04T09:05:09.596Z,54.10
2024-03-04T09:07:38.150Z,54.10
2024-03-04T09:10:08.465Z,54.10
2024-03-04T09:12:36.536Z,54.10
2024-03-04T09:15:04.716Z,54.10
2024-03-04T09:17:32.964Z,54.00
2024-03-04T09:20:01.455Z,54.00
2024-03-04T09:22:29.807Z,54.10
2024-03-04T09:24:57.870Z,54.20
2024-03-04T09:27:27.253Z,54.30
2024-03-04T09:29:55.666Z,54.20
2024-03-04T09:32:23.598Z,54.20
2024-03-04T09:34:51.936Z,54.80
2024-03-04T09:37:19.904Z,54.10
2024-03-04T09:39:47.849Z,54.80
2024-03-04T09:42:17.291Z,54.10
2024-03-04T09:44:48.773Z,54.20
2024-03-04T09:47:18.639Z,54.80
2024-03-04T09:49:46.750Z,54.10
2024-03-04T09:52:17.996Z,54.00
2024-03-04T09:54:46.127Z,54.00
2024-03-04T09:57:14.563Z,53.90
2024-03-04T09:59:42.967Z,53.90
2024-03-04T10:02:14.130Z,54.50
2024-03-04T10:04:43.674Z,53.90
2024-03-04T10:07:12.112Z,54.00
2024-03-04T10:09:40.136Z,54.10
2024-03-04T10:12:09.729Z,54.10
2024-03-04T10:14:59.511Z,53.90
2024-03-04T10:17:29.261Z,53.70
2024-03-04T10:19:59.847Z,53.60
2024-03-04T10:22:28.074Z,53.60
2024-03-04T10:25:03.049Z,53.70
2024-03-04T10:27:31.260Z,53.80
2024-03-04T10:30:13.383Z,53.80
2024-03-04T10:32:48.165Z,53.70
2024-03-04T10:35:17.479Z,53.60
2024-03-04T10:37:46.035Z,53.60
2024-03-04T10:40:14.921Z,53.60
2024-03-04T10:42:44.492Z,53.70
2024-03-04T10:45:13.317Z,53.70
2024-03-04T10:47:44.247Z,53.60
2024-03-04T10:50:13.042Z,53.60
2024-03-04T10:52:41.337Z,53.60
2024-03-04T10:55:09.719Z,53.50
2024-03-04T10:57:39.779Z,53.50
2024-03-04T11:00:18.501Z,53.60
2024-03-04T11:02:59.199Z,53.60
2024-03-04T11:05:29.157Z,53.60
2024-03-04T11:08:05.278Z,53.60
2024-03-04T11:10:35.670Z,53.60
2024-03-04T11:13:13.645Z,53.60
2024-03-04T11:15:49.312Z,53.60
2024-03-04T11:18:27.068Z,53.60
2024-03-04T11:20:56.170Z,53.80
2024-03-04T11:23:24.900Z,53.70
2024-03-04T11:25:53.383Z,53.70
2024-03-04T11:28:22.991Z,53.70
2024-03-04T11:30:51.797Z,53.70
2024-03-04T11:33:41.966Z,53.80
2024-03-04T11:36:11.158Z,53.80
2024-03-04T11:38:43.425Z,53.70
2024-03-04T11:41:12.161Z,53.60
2024-03-04T11:43:50.266Z,53.60
2024-03-04T11:46:21.010Z,53.60
2024-03-04T11:48:50.984Z,53.70
2024-03-04T11:51:45.619Z,53.80
2024-03-04T11:54:13.592Z,53.70
2024-03-04T11:56:42.510Z,53.70
2024-03-04T11:59:13.577Z,53.70
2024-03-04T12:01:41.632Z,53.80
2024-03-04T12:04:11.025Z,53.80
2024-03-04T12:06:39.377Z,53.90
2024-03-04T12:09:26.640Z,54.00
2024-03-04T12:11:55.649Z,53.90
2024-03-04T12:14:23.942Z,53.90
2024-03-04T12:16:52.156Z,53.80
2024-03-04T12:19:21.834Z,53.70
2024-03-04T12:21:51.203Z,53.60
2024-03-04T12:24:22.720Z,53.60
2024-03-04T12:26:51.979Z,53.60
2024-03-04T12:29:24.515Z,53.70
2024-03-04T12:31:54.402Z,53.70
2024-03-04T12:34:23.755Z,53.80
2024-03-04T12:36:51.786Z,53.70
2024-03-04T12:39:21.290Z,53.80
2024-03-04T12:41:50.241Z,53.80
2024-03-04T12:44:20.294Z,53.80
2024-03-04T12:46:51.186Z,53.80
2024-03-04T12:49:19.393Z,53.90
2024-03-04T12:51:48.861Z,54.00
2024-03-04T12:54:24.802Z,54.00
2024-03-04T12:56:52.898Z,54.70
2024-03-04T12:59:22.191Z,54.10
2024-03-04T13:01:50.188Z,54.80
2024-03-04T13:04:18.521Z,54.20
2024-03-04T13:06:48.013Z,54.80
2024-03-04T13:09:17.903Z,54.10
2024-03-04T13:11:47.187Z,54.10
2024-03-04T13:14:15.598Z,54.00
2024-03-04T13:16:43.825Z,53.90
2024-03-04T13:19:13.638Z,53.80
2024-03-04T13:21:41.569Z,53.80
2024-03-04T13:24:11.302Z,53.90
2024-03-04T13:26:41.839Z,54.00
2024-03-04T13:29:11.668Z,54.10
2024-03-04T13:31:39.603Z,54.10
2024-03-04T13:34:07.975Z,54.10
2024-03-04T13:36:36.025Z,54.20
2024-03-04T13:39:04.532Z,54.20
2024-03-04T13:41:33.830Z,54.20
2024-03-04T13:44:01.837Z,54.30
2024-03-04T13:46:30.348Z,54.30
2024-03-04T13:48:58.418Z,54.20
2024-03-04T13:51:26.377Z,54.30
2024-03-04T13:53:54.465Z,54.90
2024-03-04T13:56:22.758Z,54.20
2024-03-04T13:58:52.873Z,54.10
2024-03-04T14:01:21.172Z,54.10
2024-03-04T14:03:50.433Z,54.20
2024-03-04T14:06:18.493Z,54.20
2024-03-04T14:08:47.002Z,54.20
2024-03-04T14:11:15.188Z,54.20
2024-03-04T14:13:43.248Z,54.30
2024-03-04T14:16:12.800Z,54.30
2024-03-04T14:18:41.570Z,54.20
2024-03-04T14:21:09.944Z,54.20
2024-03-04T14:23:41.328Z,54.30
2024-03-04T14:26:11.439Z,54.40
2024-03-04T14:28:39.403Z,54.40
2024-03-04T14:31:08.438Z,54.40
2024-03-04T14:33:38.020Z,55.00
2024-03-04T14:36:07.756Z,54.50
2024-03-04T14:38:35.867Z,54.60
2024-03-04T14:41:04.698Z,54.70
2024-03-04T14:43:33.556Z,54.70
2024-03-04T14:46:01.581Z,54.70
2024-03-04T14:48:30.516Z,54.70
2024-03-04T14:51:00.167Z,54.70
2024-03-04T14:53:29.819Z,54.70
2024-03-04T14:55:59.577Z,54.80
2024-03-04T14:58:27.713Z,54.80
2024-03-04T15:00:56.090Z,54.90
2024-03-04T15:03:25.400Z,55.00
2024-03-04T15:05:53.517Z,55.00
2024-03-04T15:08:22.809Z,55.00
2024-03-04T15:10:51.407Z,55.00
2024-03-04T15:13:21.067Z,55.00
2024-03-04T15:15:49.829Z,55.00
2024-03-04T15:18:21.929Z,55.60
2024-03-04T15:20:54.485Z,55.10
2024-03-04T15:23:24.152Z,55.80
2024-03-04T15:25:52.261Z,55.20
2024-03-04T15:28:20.407Z,55.20
2024-03-04T15:30:48.509Z,55.20
2024-03-04T15:33:17.660Z,55.20
2024-03-04T15:35:46.273Z,55.20
2024-03-04T15:38:14.995Z,55.20
2024-03-04T15:40:45.098Z,55.20
2024-03-04T15:43:14.763Z,55.30
2024-03-04T15:45:44.033Z,55.20
2024-03-04T15:48:12.000Z,55.30
2024-03-04T15:50:39.939Z,55.40
2024-03-04T15:53:08.157Z,56.00
2024-03-04T15:55:36.104Z,55.50
2024-03-04T15:58:09.816Z,55.60
2024-03-04T16:00:39.747Z,55.50
2024-03-04T16:03:08.306Z,55.50
2024-03-04T16:05:36.477Z,55.60
2024-03-04T16:08:05.305Z,55.50
2024-03-04T16:10:33.333Z,55.60
2024-03-04T16:13:01.823Z,55.60
2024-03-04T16:15:40.925Z,55.70
2024-03-04T16:18:16.647Z,55.60
2024-03-04T16:20:44.964Z,55.70
2024-03-04T16:23:12.941Z,55.60
2024-03-04T16:25:41.910Z,55.70
2024-03-04T16:28:10.243Z,55.60
2024-03-04T16:30:39.637Z,55.70
2024-03-04T16:33:07.656Z,55.70
2024-03-04T16:35:35.970Z,55.60
2024-03-04T16:38:04.817Z,55.70
2024-03-04T16:40:32.823Z,55.70
2024-03-04T16:43:00.930Z,55.70
2024-03-04T16:45:29.131Z,55.70
2024-03-04T16:47:58.540Z,55.70
2024-03-04T16:50:26.536Z,55.70
2024-03-04T16:52:56.641Z,55.70
2024-03-04T16:55:25.090Z,55.80
2024-03-04T16:57:53.645Z,55.90
2024-03-04T17:00:22.303Z,55.80
2024-03-04T17:02:50.862Z,56.00
2024-03-04T17:05:20.230Z,55.90
2024-03-04T17:07:49.577Z,55.90
2024-03-04T17:10:18.674Z,55.90
2024-03-04T17:12:46.679Z,55.90
2024-03-04T17:15:14.650Z,56.00
2024-03-04T17:17:42.818Z,56.00
2024-03-04T17:20:11.489Z,56.10
2024-03-04T17:22:41.326Z,56.10
2024-03-04T17:25:09.978Z,56.00
2024-03-04T17:27:37.985Z,56.10
2024-03-04T17:30:08.915Z,56.00
2024-03-04T17:32:36.880Z,56.10
2024-03-04T17:35:05.625Z,56.10
2024-03-04T17:37:33.900Z,56.20
2024-03-04T17:40:05.285Z,56.30
2024-03-04T17:42:33.628Z,56.20
2024-03-04T17:45:01.726Z,56.10
2024-03-04T17:47:30.555Z,56.10
2024-03-04T17:49:58.605Z,56.20
2024-03-04T17:52:26.640Z,56.20
2024-03-04T17:54:54.813Z,56.20
2024-03-04T17:57:24.373Z,56.20
2024-03-04T17:59:52.363Z,56.20
2024-03-04T18:02:22.662Z,56.20
2024-03-04T18:04:51.332Z,56.20
2024-03-04T18:07:19.785Z,56.20
2024-03-04T18:09:47.875Z,56.20
2024-03-04T18:12:15.852Z,56.20
2024-03-04T18:14:45.365Z,56.30
2024-03-04T18:17:14.226Z,56.40
2024-03-04T18:19:42.276Z,56.30
2024-03-04T18:22:10.453Z,56.30
2024-03-04T18:24:38.771Z,56.20
2024-03-04T18:27:07.491Z,56.20
2024-03-04T18:29:35.949Z,56.30
2024-03-04T18:32:06.371Z,56.30
2024-03-04T18:34:34.676Z,56.30
2024-03-04T18:37:02.753Z,56.40
2024-03-04T18:39:33.027Z,56.30
2024-03-04T18:42:02.238Z,56.30
2024-03-04T18:44:30.210Z,56.30
2024-03-04T18:46:59.106Z,56.30
2024-03-04T18:49:28.664Z,56.30
2024-03-04T18:51:56.638Z,56.40
2024-03-04T18:54:24.867Z,56.40
2024-03-04T18:56:52.946Z,56.40
2024-03-04T18:59:20.940Z,56.40
2024-03-04T19:01:49.442Z,56.30
2024-03-04T19:04:17.482Z,56.30
2024-03-04T19:06:46.877Z,56.40
2024-03-04T19:09:15.118Z,56.40
2024-03-04T19:11:43.410Z,56.40
2024-03-04T19:14:11.529Z,56.50
2024-03-04T19:16:39.575Z,56.40
2024-03-04T19:19:07.661Z,56.40
2024-03-04T19:21:35.736Z,56.40
2024-03-04T19:24:05.330Z,56.40
2024-03-04T19:26:33.296Z,56.40
2024-03-04T19:29:01.288Z,57.10
2024-03-04T19:31:29.315Z,56.40
2024-03-04T19:33:57.722Z,56.40
2024-03-04T19:36:25.854Z,56.30
2024-03-04T19:38:53.878Z,57.00
2024-03-04T19:41:24.208Z,56.40
2024-03-04T19:43:53.142Z,56.50
2024-03-04T19:46:23.028Z,57.10
2024-03-04T19:48:51.631Z,56.50
2024-03-04T19:51:22.732Z,56.40
2024-03-04T19:53:51.451Z,56.40
2024-03-04T19:56:19.636Z,56.40
2024-03-04T19:58:49.400Z,56.50
2024-03-04T20:01:17.598Z,56.50
2024-03-04T20:03:46.182Z,56.50
2024-03-04T20:06:14.611Z,56.40
2024-03-04T20:08:43.058Z,56.40
2024-03-04T20:11:12.232Z,56.40
2024-03-04T20:13:40.839Z,56.40
2024-03-04T20:16:10.945Z,56.40
2024-03-04T20:18:38.964Z,56.50
2024-03-04T20:21:07.866Z,56.50
2024-03-04T20:23:37.049Z,56.40
2024-03-04T20:26:05.817Z,56.40
2024-03-04T20:28:34.521Z,56.40
2024-03-04T20:31:03.315Z,56.50
2024-03-04T20:33:33.362Z,56.50
2024-03-04T20:36:02.237Z,56.60
2024-03-04T20:38:30.243Z,56.60
2024-03-04T20:40:58.379Z,56.60
2024-03-04T20:43:26.640Z,56.60
2024-03-04T20:45:55.339Z,56.40
2024-03-04T20:48:25.665Z,56.50
2024-03-04T20:50:54.991Z,57.10
2024-03-04T20:53:22.982Z,56.60
2024-03-04T20:55:51.559Z,56.60
2024-03-04T20:58:19.998Z,57.20
2024-03-04T21:00:48.839Z,56.60
2024-03-04T21:03:17.267Z,56.60
2024-03-04T21:05:45.240Z,56.60
2024-03-04T21:08:14.796Z,56.60
2024-03-04T21:10:43.655Z,56.60
2024-03-04T21:13:11.803Z,56.60
2024-03-04T21:15:42.330Z,56.70
2024-03-04T21:18:10.509Z,56.60
2024-03-04T21:20:39.188Z,56.60
2024-03-04T21:23:07.664Z,56.50
2024-03-04T21:25:37.518Z,56.50
2024-03-04T21:28:05.661Z,57.30
2024-03-04T21:30:33.904Z,56.60
2024-03-04T21:33:01.999Z,56.70
2024-03-04T21:35:30.023Z,56.70
2024-03-04T21:37:58.073Z,56.70
2024-03-04T21:40:27.098Z,56.80
2024-03-04T21:42:56.466Z,56.80
2024-03-04T21:45:24.870Z,56.90
2024-03-04T21:47:53.166Z,57.00
2024-03-04T21:50:21.399Z,57.00
2024-03-04T21:52:49.443Z,57.10
2024-03-04T21:55:18.364Z,57.20
2024-03-04T21:57:46.671Z,57.90
2024-03-04T22:00:17.570Z,57.20
2024-03-04T22:02:46.670Z,57.50
2024-03-04T22:05:14.921Z,57.50
2024-03-04T22:07:43.260Z,57.60
2024-03-04T22:10:13.133Z,57.60
2024-03-04T22:12:41.477Z,57.60
2024-03-04T22:15:11.399Z,57.70
2024-03-04T22:17:41.204Z,57.80
2024-03-04T22:20:14.307Z,57.90
2024-03-04T22:22:43.033Z,57.90
2024-03-04T22:25:11.319Z,58.10
2024-03-04T22:27:39.518Z,58.10
2024-03-04T22:30:10.313Z,58.10
2024-03-04T22:32:40.738Z,58.20
2024-03-04T22:35:09.933Z,58.20
2024-03-04T22:37:37.991Z,58.20
2024-03-04T22:40:09.412Z,58.30
2024-03-04T22:42:37.542Z,58.30
2024-03-04T22:45:06.118Z,59.00
2024-03-04T22:47:34.521Z,58.50
2024-03-04T22:50:04.541Z,58.40
2024-03-04T22:52:32.764Z,58.40
2024-03-04T22:55:00.780Z,58.50
2024-03-04T22:57:28.793Z,58.50
2024-03-04T22:59:56.749Z,58.50
2024-03-04T23:02:24.796Z,58.50
2024-03-04T23:04:53.166Z,58.40
2024-03-04T23:07:22.905Z,58.40
2024-03-04T23:09:50.934Z,58.30
2024-03-04T23:12:19.158Z,58.30
2024-03-04T23:14:48.002Z,58.30
2024-03-04T23:17:16.185Z,58.40
2024-03-04T23:19:45.420Z,58.50
2024-03-04T23:22:13.542Z,58.50
2024-03-04T23:24:42.880Z,58.50
2024-03-04T23:27:11.104Z,58.50
2024-03-04T23:29:39.013Z,58.40
2024-03-04T23:32:08.895Z,58.30
2024-03-04T23:34:37.008Z,58.30
2024-03-04T23:37:06.301Z,58.30
2024-03-04T23:39:35.290Z,58.30
2024-03-04T23:42:04.743Z,58.30
2024-03-04T23:44:32.697Z,58.40
2024-03-04T23:47:02.137Z,58.40
2024-03-04T23:49:30.507Z,58.50
2024-03-04T23:51:58.717Z,59.10
2024-03-04T23:54:26.761Z,58.50
2024-03-04T23:56:54.981Z,58.50
2024-03-04T23:59:24.703Z,58.60
